Time;durP1;ratioP1;P1;durP2;ratioP2;P2;SDS_P1;SDS_P2;PMS_P1;PMS_P2;Temp;Humidity;BMP_temperature;BMP_pressure;BME280_temperature;BME280_humidity;BME280_pressure;Samples;Min_cycle;Max_cycle;Signal;HPM_P1;HPM_P2
2021/12/07 00:00:56;;;;;;;64.30;33.38;;;;;;;0.33;79.35;96619.81;1711784;82;25706;-79
2021/12/07 00:03:23;;;;;;;62.70;32.48;;;;;;;0.35;79.36;96623.63;1711744;82;25712;-80
2021/12/07 00:05:50;;;;;;;56.75;31.70;;;;;;;0.35;79.33;96627.12;1711788;82;25725;-80
2021/12/07 00:08:17;;;;;;;61.15;32.73;;;;;;;0.39;79.34;96629.41;1711737;83;27372;-79
2021/12/07 00:10:44;;;;;;;59.50;31.87;;;;;;;0.40;79.29;96625.27;1711684;82;25247;-80
2021/12/07 00:13:11;;;;;;;59.55;31.52;;;;;;;0.41;79.25;96620.79;1711787;82;25795;-80
2021/12/07 00:15:39;;;;;;;65.60;34.33;;;;;;;0.42;79.25;96623.78;1711764;83;25630;-80
2021/12/07 00:18:06;;;;;;;68.28;33.58;;;;;;;0.44;79.21;96612.50;1711821;83;25681;-80
2021/12/07 00:20:33;;;;;;;65.35;33.45;;;;;;;0.39;79.16;96598.39;1711695;82;27585;-80
2021/12/07 00:23:05;;;;;;;60.33;31.42;;;;;;;0.34;79.15;96596.25;1711656;82;25728;-80
2021/12/07 00:25:32;;;;;;;62.33;33.97;;;;;;;0.30;79.16;96594.92;1712027;82;25696;-80
2021/12/07 00:27:59;;;;;;;64.27;33.53;;;;;;;0.22;79.17;96591.45;1711772;82;25775;-80
2021/12/07 00:30:30;;;;;;;59.45;31.87;;;;;;;0.21;79.33;96597.25;1711980;82;26299;-80
2021/12/07 00:33:08;;;;;;;68.00;33.23;;;;;;;0.25;79.44;96599.89;1711652;82;28215;-80
2021/12/07 00:35:34;;;;;;;68.72;33.25;;;;;;;0.26;79.39;96604.70;1709215;82;25744;-80
2021/12/07 00:37:57;;;;;;;67.87;31.93;;;;;;;0.21;79.36;96603.06;1709794;82;25689;-80
2021/12/07 00:40:25;;;;;;;64.95;32.15;;;;;;;0.23;79.47;96601.91;1711941;83;25665;-80
2021/12/07 00:42:52;;;;;;;66.57;33.20;;;;;;;0.28;79.46;96612.00;1711700;82;25200;-80
2021/12/07 00:45:21;;;;;;;56.85;30.40;;;;;;;0.31;79.43;96615.66;1711853;82;27593;-80
2021/12/07 00:47:50;;;;;;;61.48;32.33;;;;;;;0.34;79.42;96616.66;1711414;83;25717;-79
2021/12/07 00:50:20;;;;;;;61.55;29.80;;;;;;;0.38;79.40;96617.13;1711876;82;25744;-80
2021/12/07 00:52:48;;;;;;;59.90;31.30;;;;;;;0.40;79.36;96613.32;1711853;83;26274;-80
2021/12/07 00:55:19;;;;;;;66.67;33.70;;;;;;;0.41;79.34;96599.05;1711921;82;25803;-80
2021/12/07 00:57:49;;;;;;;62.60;31.87;;;;;;;0.42;79.28;96595.90;1711970;82;32772;-80
2021/12/07 01:00:16;;;;;;;65.57;35.08;;;;;;;0.38;79.26;96587.44;1711586;82;25838;-80
2021/12/07 01:02:43;;;;;;;63.60;35.73;;;;;;;0.35;79.31;96585.97;1711846;83;25745;-80
2021/12/07 01:05:18;;;;;;;61.70;32.70;;;;;;;0.36;79.34;96591.58;1711868;82;25750;-80
2021/12/07 01:26:40;;;;;;;72.27;33.73;;;;;;;0.30;79.45;96600.73;1711789;82;25946;-79
2021/12/07 01:29:07;;;;;;;67.50;34.45;;;;;;;0.30;79.49;96598.91;1711729;83;25649;-79
2021/12/07 01:31:51;;;;;;;66.65;32.58;;;;;;;0.31;79.50;96585.96;1711885;82;25357;-79
2021/12/07 01:36:48;;;;;;;60.85;31.97;;;;;;;0.33;79.42;96581.32;1711792;82;27417;-80
2021/12/07 01:47:42;;;;;;;68.50;33.13;;;;;;;0.34;79.45;96579.00;1711616;82;25662;-80
2021/12/07 01:52:41;;;;;;;61.20;31.45;;;;;;;0.40;79.51;96580.63;1711766;82;25744;-80
2021/12/07 01:58:06;;;;;;;68.12;34.55;;;;;;;0.39;79.40;96582.95;1711655;82;25715;-79
2021/12/07 02:00:22;;;;;;;60.43;31.93;;;;;;;0.35;79.41;96588.63;1708405;82;25689;-79
2021/12/07 02:02:48;;;;;;;67.50;34.78;;;;;;;0.33;79.37;96585.30;1711823;82;27368;-79
2021/12/07 02:05:16;;;;;;;65.55;33.05;;;;;;;0.31;79.39;96581.98;1711770;82;25715;-79
2021/12/07 02:07:42;;;;;;;60.00;32.35;;;;;;;0.34;79.46;96588.29;1711888;82;25768;-79
2021/12/07 02:10:16;;;;;;;62.00;32.35;;;;;;;0.34;79.47;96579.00;1711784;82;25785;-78
2021/12/07 02:12:44;;;;;;;59.73;29.35;;;;;;;0.36;79.46;96580.95;1711521;82;25744;-79
2021/12/07 02:15:20;;;;;;;64.55;33.05;;;;;;;0.36;79.41;96582.29;1711722;82;28429;-79
2021/12/07 02:17:49;;;;;;;63.85;32.75;;;;;;;0.27;79.38;96586.45;1711690;82;25720;-79
2021/12/07 02:20:17;;;;;;;70.57;34.03;;;;;;;0.28;79.49;96583.64;1711870;82;26017;-79
2021/12/07 02:22:44;;;;;;;66.50;32.35;;;;;;;0.30;79.56;96579.48;1711847;82;25751;-79
2021/12/07 02:25:14;;;;;;;64.40;32.20;;;;;;;0.32;79.55;96577.00;1708667;82;25636;-79
2021/12/07 02:27:41;;;;;;;65.30;33.48;;;;;;;0.31;79.55;96575.34;1781088;79;27399;-79
2021/12/07 02:30:12;;;;;;;63.83;31.90;;;;;;;0.26;79.53;96568.37;1781068;79;25824;-79
2021/12/07 02:32:39;;;;;;;65.45;34.27;;;;;;;0.26;79.61;96568.37;1781099;79;25750;-79
2021/12/07 02:35:09;;;;;;;65.30;34.40;;;;;;;0.23;79.67;96568.73;1781120;79;25712;-79
2021/12/07 02:37:36;;;;;;;64.85;34.27;;;;;;;0.25;79.76;96568.53;1781005;79;25702;-79
2021/12/07 02:40:06;;;;;;;73.85;35.75;;;;;;;0.25;79.79;96566.70;1781102;79;27399;-79
2021/12/07 02:42:32;;;;;;;66.40;32.42;;;;;;;0.24;79.80;96567.70;1780650;79;25296;-79
2021/12/07 02:44:59;;;;;;;68.57;34.65;;;;;;;0.26;79.84;96575.00;1778335;79;25642;-79
2021/12/07 02:47:26;;;;;;;63.75;33.13;;;;;;;0.26;79.79;96574.17;1778274;79;25669;-79
2021/12/07 02:49:52;;;;;;;60.10;30.97;;;;;;;0.28;79.85;96573.52;1778332;80;25738;-79
2021/12/07 02:52:19;;;;;;;64.05;31.68;;;;;;;0.29;79.80;96575.17;1778325;79;27573;-79
2021/12/07 02:54:49;;;;;;;60.88;32.23;;;;;;;0.30;79.77;96574.18;1778116;79;25234;-79
2021/12/07 02:57:18;;;;;;;60.23;31.27;;;;;;;0.31;79.75;96571.36;1773534;79;25717;-79
2021/12/07 02:59:51;;;;;;;60.38;30.77;;;;;;;0.34;79.77;96564.89;1778075;80;26135;-79
2021/12/07 03:02:18;;;;;;;62.13;31.55;;;;;;;0.36;79.73;96562.91;1777559;79;25726;-79
2021/12/07 03:05:00;;;;;;;62.62;31.37;;;;;;;0.28;79.62;96565.55;1778305;80;28124;-79
2021/12/07 03:07:26;;;;;;;44.23;23.77;;;;;;;0.19;79.50;96574.03;1775807;79;25730;-79
2021/12/07 03:26:17;;;;;;;29.50;18.35;;;;;;;-0.02;79.55;96574.55;1778280;79;26410;-78
2021/12/07 03:28:49;;;;;;;31.07;17.25;;;;;;;-0.07;79.55;96579.50;1778351;79;25759;-79
2021/12/07 03:31:17;;;;;;;29.27;16.37;;;;;;;-0.06;79.63;96573.70;1778534;79;27343;-79
2021/12/07 03:33:44;;;;;;;24.25;14.58;;;;;;;-0.04;79.71;96574.38;1778192;79;25650;-79
2021/12/07 03:36:14;;;;;;;25.45;15.13;;;;;;;-0.02;79.72;96573.72;1778294;79;25662;-79
2021/12/07 03:38:42;;;;;;;24.15;14.43;;;;;;;-0.01;79.72;96574.88;1777869;79;25651;-80
2021/12/07 03:41:09;;;;;;;24.70;14.28;;;;;;;0.01;79.72;96576.02;1778048;79;25663;-79
2021/12/07 03:43:36;;;;;;;23.12;13.88;;;;;;;0.04;79.71;96578.84;1778089;79;27476;-79
2021/12/07 03:46:03;;;;;;;26.55;14.95;;;;;;;0.04;79.72;96583.65;1778112;79;25863;-79
2021/12/07 03:48:30;;;;;;;24.65;14.68;;;;;;;0.08;79.71;96583.66;1778375;79;25770;-79
2021/12/07 03:50:56;;;;;;;26.07;15.18;;;;;;;0.10;79.68;96577.69;1778047;80;26291;-79
2021/12/07 03:53:23;;;;;;;32.63;17.45;;;;;;;0.12;79.66;96574.88;1778283;80;25684;-79
2021/12/07 03:55:49;;;;;;;26.60;15.20;;;;;;;0.13;79.60;96585.30;1778231;79;28094;-79
2021/12/07 03:58:16;;;;;;;27.75;15.13;;;;;;;0.13;79.50;96585.30;1777854;79;25810;-78
2021/12/07 04:00:45;;;;;;;24.55;14.05;;;;;;;0.13;79.51;96589.27;1778170;79;25699;-79
2021/12/07 04:03:15;;;;;;;33.38;16.40;;;;;;;0.14;79.48;96590.94;1778372;79;25372;-79
2021/12/07 04:05:48;;;;;;;27.42;14.63;;;;;;;0.14;79.45;96592.27;1778455;79;25784;-79
2021/12/07 04:08:24;;;;;;;26.62;14.70;;;;;;;0.12;79.42;96594.78;1778536;79;27375;-79
2021/12/07 04:10:54;;;;;;;26.85;13.80;;;;;;;0.11;79.47;96592.63;1778280;79;26276;-79
2021/12/07 04:13:21;;;;;;;23.07;12.37;;;;;;;0.12;79.47;96589.47;1778461;79;25646;-79
2021/12/07 04:15:48;;;;;;;25.20;13.13;;;;;;;0.13;79.48;96594.58;1778455;80;25800;-79
2021/12/07 04:18:15;;;;;;;23.52;13.90;;;;;;;0.14;79.45;96594.09;1778345;79;25702;-79
2021/12/07 04:20:41;;;;;;;25.02;12.82;;;;;;;0.14;79.43;96595.41;1778425;79;27537;-79
2021/12/07 04:23:08;;;;;;;22.50;12.80;;;;;;;0.16;79.46;96602.22;1778362;79;26231;-79
2021/12/07 04:25:36;;;;;;;25.02;13.03;;;;;;;0.17;79.37;96596.41;1778386;79;25682;-79
2021/12/07 04:28:04;;;;;;;21.68;13.18;;;;;;;0.16;79.30;96602.72;1778455;79;26307;-79
2021/12/07 04:30:35;;;;;;;22.77;12.68;;;;;;;0.15;79.29;96605.87;1778449;79;25681;-79
2021/12/07 04:33:06;;;;;;;22.50;13.10;;;;;;;0.14;79.26;96601.55;1778368;80;27359;-79
2021/12/07 04:35:33;;;;;;;23.10;14.55;;;;;;;0.09;79.20;96598.59;1778377;79;25809;-79
2021/12/07 04:38:00;;;;;;;24.35;12.55;;;;;;;0.11;79.23;96601.91;1778374;79;25693;-79
2021/12/07 04:40:30;;;;;;;22.17;12.80;;;;;;;0.11;79.28;96600.58;1778324;79;25611;-79
2021/12/07 04:42:57;;;;;;;22.70;13.72;;;;;;;0.12;79.34;96608.84;1778391;79;25698;-79
2021/12/07 04:45:35;;;;;;;21.95;14.15;;;;;;;0.14;79.33;96604.20;1781086;79;27413;-79
2021/12/07 04:48:22;;;;;;;26.20;14.35;;;;;;;0.15;79.26;96608.52;1780010;79;25706;-79
2021/12/07 04:58:25;;;;;;;29.23;15.63;;;;;;;0.13;79.37;96602.55;1781244;79;28303;-79
2021/12/07 05:00:52;;;;;;;28.02;15.55;;;;;;;0.14;79.36;96604.20;1781317;79;25709;-79
2021/12/07 05:03:19;;;;;;;34.78;17.05;;;;;;;0.15;79.35;96603.21;1781467;79;25749;-80
2021/12/07 05:05:47;;;;;;;29.70;15.80;;;;;;;0.16;79.34;96610.19;1781479;79;25849;-79
2021/12/07 05:08:21;;;;;;;33.25;16.27;;;;;;;0.10;79.22;96610.86;1781329;79;25705;-79
2021/12/07 05:13:27;;;;;;;29.85;16.50;;;;;;;0.10;79.24;96604.23;1781335;80;25753;-79
2021/12/07 05:23:56;;;;;;;29.72;16.97;;;;;;;0.11;79.35;96607.71;1781153;79;28220;-79
2021/12/07 05:40:00;;;;;;;44.80;20.55;;;;;;;0.11;79.24;96605.06;1781015;79;25734;-79
2021/12/07 05:42:26;;;;;;;40.10;18.60;;;;;;;0.12;79.30;96606.72;1781406;79;25689;-79
2021/12/07 05:44:54;;;;;;;43.60;19.57;;;;;;;0.10;79.20;96605.55;1779239;80;25661;-79
2021/12/07 05:47:22;;;;;;;33.53;15.68;;;;;;;0.10;79.24;96610.03;1778136;79;25781;-79
2021/12/07 05:49:49;;;;;;;25.43;14.33;;;;;;;0.12;79.28;96610.70;1778248;79;28180;-79
2021/12/07 05:52:16;;;;;;;28.73;15.48;;;;;;;0.11;79.21;96613.84;1778168;80;26132;-79
2021/12/07 05:54:43;;;;;;;34.18;16.07;;;;;;;0.08;79.25;96607.54;1778285;79;25692;-79
2021/12/07 05:57:10;;;;;;;28.35;15.55;;;;;;;0.09;79.26;96609.20;1778383;79;25703;-79
2021/12/07 05:59:37;;;;;;;28.67;15.15;;;;;;;0.07;79.28;96596.59;1778285;79;25800;-79
2021/12/07 06:02:04;;;;;;;31.80;16.42;;;;;;;0.07;79.27;96597.09;1778416;79;28185;-79
2021/12/07 06:04:30;;;;;;;30.80;16.62;;;;;;;0.05;79.25;96597.25;1778167;79;26028;-79
2021/12/07 06:06:59;;;;;;;31.62;15.83;;;;;;;0.03;79.26;96603.70;1778325;79;25785;-79
2021/12/07 06:09:27;;;;;;;28.80;15.30;;;;;;;0.01;79.29;96610.50;1778344;79;25796;-79
2021/12/07 06:11:54;;;;;;;27.05;14.73;;;;;;;0.03;79.33;96612.50;1778269;79;26363;-79
2021/12/07 06:14:28;;;;;;;31.90;16.62;;;;;;;0.02;79.26;96611.33;1778337;79;27462;-79
2021/12/07 06:16:50;;;;;;;32.60;16.10;;;;;;;0.02;79.32;96608.19;1777482;80;25825;-79
2021/12/07 06:19:17;;;;;;;33.33;17.73;;;;;;;0.02;79.32;96620.62;1778284;79;25634;-79
2021/12/07 06:21:43;;;;;;;36.73;17.75;;;;;;;0.01;79.31;96622.45;1778299;79;26308;-79
2021/12/07 06:24:10;;;;;;;34.88;17.32;;;;;;;-0.02;79.27;96618.81;1778359;79;25624;-79
2021/12/07 06:26:37;;;;;;;32.20;16.57;;;;;;;-0.03;79.29;96617.16;1778297;79;27339;-79
2021/12/07 06:29:04;;;;;;;32.13;16.27;;;;;;;-0.06;79.29;96615.66;1778259;80;25760;-79
2021/12/07 06:31:31;;;;;;;33.33;17.77;;;;;;;-0.08;79.25;96618.13;1778279;79;25226;-79
2021/12/07 06:33:57;;;;;;;33.25;17.45;;;;;;;-0.11;79.25;96613.98;1778305;79;25777;-79
2021/12/07 06:36:24;;;;;;;32.67;16.95;;;;;;;-0.12;79.23;96622.92;1777826;79;25193;-79
2021/12/07 06:38:51;;;;;;;32.28;17.73;;;;;;;-0.10;79.29;96621.44;1777300;79;28079;-79
2021/12/07 06:41:18;;;;;;;40.80;19.25;;;;;;;-0.10;79.23;96624.92;1777233;79;25714;-79
2021/12/07 06:43:45;;;;;;;38.00;18.07;;;;;;;-0.11;79.22;96631.72;1777410;79;25742;-79
2021/12/07 06:46:12;;;;;;;40.83;19.52;;;;;;;-0.09;79.28;96632.39;1779896;79;26314;-79
2021/12/07 06:48:39;;;;;;;36.13;18.77;;;;;;;-0.08;79.28;96632.23;1780161;79;25700;-79
2021/12/07 06:51:06;;;;;;;36.08;17.00;;;;;;;-0.08;79.27;96632.72;1780117;79;27585;-79
2021/12/07 06:53:36;;;;;;;33.88;17.27;;;;;;;-0.06;79.27;96634.72;1780645;79;25701;-79
2021/12/07 06:56:01;;;;;;;34.35;16.65;;;;;;;-0.06;79.24;96633.39;1780689;79;25710;-79
2021/12/07 06:58:27;;;;;;;35.30;17.62;;;;;;;-0.07;79.24;96635.71;1781049;80;25857;-79
2021/12/07 07:00:54;;;;;;;33.85;17.32;;;;;;;-0.08;79.17;96636.70;1780974;79;25643;-79
2021/12/07 07:03:20;;;;;;;35.40;18.05;;;;;;;-0.08;79.23;96639.36;1781071;79;28047;-79
2021/12/07 07:05:47;;;;;;;31.30;15.53;;;;;;;-0.05;79.26;96640.36;1780912;79;25702;-79
2021/12/07 07:08:15;;;;;;;37.10;17.52;;;;;;;-0.04;79.17;96646.84;1781015;79;25722;-79
2021/12/07 07:10:42;;;;;;;32.23;17.45;;;;;;;-0.05;79.19;96657.61;1780946;80;25800;-79
2021/12/07 07:13:09;;;;;;;36.05;18.40;;;;;;;-0.05;79.21;96657.61;1781005;79;25269;-79
2021/12/07 07:15:36;;;;;;;37.05;19.30;;;;;;;-0.06;79.21;96658.59;1781044;79;27188;-79
2021/12/07 07:18:02;;;;;;;38.50;19.82;;;;;;;-0.06;79.21;96655.94;1780917;79;25643;-79
2021/12/07 07:20:29;;;;;;;32.03;17.87;;;;;;;-0.05;79.21;96661.59;1781037;80;25699;-79
2021/12/07 07:22:56;;;;;;;34.45;18.90;;;;;;;-0.05;79.19;96660.27;1781042;80;25814;-79
2021/12/07 07:25:22;;;;;;;35.65;18.40;;;;;;;-0.05;79.14;96658.94;1781062;80;25670;-79
2021/12/07 07:27:49;;;;;;;29.80;16.93;;;;;;;-0.05;79.11;96654.95;1781027;79;27423;-79
2021/12/07 07:30:19;;;;;;;30.02;16.12;;;;;;;-0.03;79.11;96656.95;1780943;80;26181;-79
2021/12/07 07:32:46;;;;;;;28.07;16.57;;;;;;;-0.01;79.04;96658.95;1781048;80;25695;-79
2021/12/07 07:35:15;;;;;;;30.00;16.12;;;;;;;-0.03;79.01;96660.93;1781046;79;26678;-79
2021/12/07 07:37:42;;;;;;;30.90;16.45;;;;;;;-0.05;78.99;96658.44;1780980;79;25217;-79
2021/12/07 07:40:15;;;;;;;31.55;16.95;;;;;;;-0.04;78.98;96657.94;1780675;80;27632;-79
2021/12/07 07:42:41;;;;;;;32.03;16.85;;;;;;;-0.02;79.00;96653.30;1780731;80;32892;-79
2021/12/07 07:45:10;;;;;;;29.30;17.23;;;;;;;0.01;79.01;96666.22;1780973;79;25644;-79
2021/12/07 07:47:37;;;;;;;35.55;17.90;;;;;;;0.01;79.01;96662.24;1781283;79;26374;-79
2021/12/07 07:50:06;;;;;;;36.50;18.87;;;;;;;0.02;78.98;96659.92;1781309;79;25649;-79
2021/12/07 07:52:33;;;;;;;37.15;19.57;;;;;;;0.05;79.01;96660.93;1781203;79;27448;-79
2021/12/07 07:55:00;;;;;;;37.55;20.37;;;;;;;0.07;78.98;96660.28;1780830;79;25738;-80
2021/12/07 07:57:28;;;;;;;37.55;20.60;;;;;;;0.08;78.97;96665.92;1781258;79;25773;-79
2021/12/07 07:59:54;;;;;;;37.10;18.12;;;;;;;0.09;78.95;96666.75;1781204;79;25787;-79
2021/12/07 08:02:21;;;;;;;37.80;20.35;;;;;;;0.07;78.92;96664.26;1781196;79;25675;-79
2021/12/07 08:04:47;;;;;;;39.78;20.57;;;;;;;0.05;78.97;96668.89;1781280;79;27390;-79
2021/12/07 08:07:15;;;;;;;38.42;19.55;;;;;;;0.05;78.96;96668.89;1781116;79;25768;-80
2021/12/07 08:09:41;;;;;;;36.23;19.52;;;;;;;0.07;79.00;96665.58;1781281;79;25742;-79
2021/12/07 08:12:08;;;;;;;40.40;19.70;;;;;;;0.08;79.02;96661.94;1781333;79;26654;-79
2021/12/07 08:14:34;;;;;;;32.55;18.55;;;;;;;0.08;79.02;96659.28;1781323;79;25721;-79
2021/12/07 08:17:01;;;;;;;35.70;18.07;;;;;;;0.09;78.99;96658.30;1781318;79;27033;-79
2021/12/07 08:19:28;;;;;;;37.73;18.87;;;;;;;0.09;78.90;96667.58;1781209;80;25682;-79
2021/12/07 08:21:54;;;;;;;33.63;18.17;;;;;;;0.09;78.87;96668.08;1781365;79;25733;-78
2021/12/07 08:24:21;;;;;;;35.03;19.55;;;;;;;0.07;78.82;96664.26;1781356;79;25748;-79
2021/12/07 08:26:47;;;;;;;32.75;18.20;;;;;;;0.08;78.79;96663.27;1781331;79;25247;-79
2021/12/07 08:29:14;;;;;;;40.85;20.23;;;;;;;0.08;78.78;96667.73;1781462;79;27332;-79
2021/12/07 08:31:41;;;;;;;36.63;19.95;;;;;;;0.07;78.78;96666.08;1781350;79;25926;-79
2021/12/07 08:34:07;;;;;;;37.13;19.62;;;;;;;0.08;78.81;96669.91;1781334;79;25816;-79
2021/12/07 08:36:34;;;;;;;34.90;19.95;;;;;;;0.08;78.77;96669.06;1781359;79;26427;-79
2021/12/07 08:39:00;;;;;;;39.35;21.35;;;;;;;0.08;78.76;96662.44;1781374;79;25666;-79
2021/12/07 08:41:27;;;;;;;36.85;19.98;;;;;;;0.09;78.78;96664.92;1781279;79;28062;-79
2021/12/07 08:43:54;;;;;;;38.92;20.97;;;;;;;0.11;78.83;96662.95;1781235;79;25693;-79
2021/12/07 08:46:21;;;;;;;41.98;20.88;;;;;;;0.13;78.80;96663.58;1780946;79;25259;-79
2021/12/07 08:48:47;;;;;;;38.88;21.62;;;;;;;0.14;78.80;96663.92;1781038;79;25877;-80
2021/12/07 08:51:16;;;;;;;47.95;25.62;;;;;;;0.16;78.79;96668.57;1781451;80;25701;-79
2021/12/07 08:54:00;;;;;;;39.58;21.35;;;;;;;0.17;78.74;96668.91;1781131;79;28274;-79
2021/12/07 09:01:53;;;;;;;44.83;24.23;;;;;;;0.15;78.68;96671.38;1773667;79;25722;-79
2021/12/07 09:04:21;;;;;;;41.95;23.57;;;;;;;0.18;78.73;96674.55;1750466;80;25808;-79
2021/12/07 09:06:50;;;;;;;44.58;21.33;;;;;;;0.18;78.64;96674.55;1750384;80;27363;-79
2021/12/07 09:09:17;;;;;;;48.30;22.75;;;;;;;0.16;78.52;96665.92;1750373;81;26232;-79
2021/12/07 09:11:45;;;;;;;41.42;21.82;;;;;;;0.15;78.60;96665.58;1750422;80;25731;-79
2021/12/07 09:14:14;;;;;;;37.93;20.37;;;;;;;0.17;78.66;96668.91;1750389;80;25778;-80
2021/12/07 09:16:42;;;;;;;42.88;21.48;;;;;;;0.18;78.69;96665.27;1750546;80;25738;-80
2021/12/07 09:19:09;;;;;;;40.05;19.27;;;;;;;0.22;78.76;96668.42;1750437;80;27424;-80
2021/12/07 09:21:36;;;;;;;39.15;20.72;;;;;;;0.23;78.74;96663.45;1750281;80;25703;-79
2021/12/07 09:24:04;;;;;;;42.83;21.10;;;;;;;0.22;78.72;96667.93;1750421;80;25783;-79
2021/12/07 09:26:31;;;;;;;39.83;20.23;;;;;;;0.22;78.75;96663.95;1750434;80;25682;-79
2021/12/07 09:28:58;;;;;;;38.67;19.98;;;;;;;0.21;78.75;96660.95;1750361;80;25674;-80
2021/12/07 09:31:25;;;;;;;39.75;19.35;;;;;;;0.23;78.75;96666.94;1750359;80;27437;-79
2021/12/07 09:33:54;;;;;;;41.68;19.77;;;;;;;0.24;78.73;96661.13;1750321;80;25668;-79
2021/12/07 09:36:22;;;;;;;41.40;20.90;;;;;;;0.25;78.75;96667.58;1750382;81;25742;-80
2021/12/07 09:38:49;;;;;;;37.15;19.40;;;;;;;0.24;78.70;96659.80;1750343;80;26038;-79
2021/12/07 09:41:18;;;;;;;37.42;18.80;;;;;;;0.24;78.70;96671.22;1750357;80;25659;-79
2021/12/07 09:43:46;;;;;;;32.95;18.23;;;;;;;0.24;78.69;96665.11;1750290;80;27370;-79
2021/12/07 09:46:15;;;;;;;38.23;17.87;;;;;;;0.21;78.62;96665.44;1750053;80;25723;-79
2021/12/07 09:48:44;;;;;;;37.40;18.95;;;;;;;0.20;78.54;96659.79;1750445;80;25647;-79
2021/12/07 09:51:16;;;;;;;38.92;19.75;;;;;;;0.15;78.54;96664.25;1750449;80;25857;-79
2021/12/07 09:53:44;;;;;;;;;;;;;;;0.16;78.58;96665.92;1753166;80;25524;-79
2021/12/07 09:56:11;;;;;;;41.40;22.40;;;;;;;0.17;78.63;96667.58;1750128;80;28256;-79
2021/12/07 09:58:39;;;;;;;44.50;22.50;;;;;;;0.16;78.61;96671.22;1750274;80;25842;-79
2021/12/07 10:01:08;;;;;;;42.17;22.70;;;;;;;0.14;78.60;96671.88;1750415;80;25702;-79
2021/12/07 10:03:36;;;;;;;41.58;22.37;;;;;;;0.12;78.60;96675.19;1750366;81;25956;-80
2021/12/07 10:06:04;;;;;;;42.20;22.60;;;;;;;0.10;78.65;96678.53;1750415;80;25611;-79
2021/12/07 10:08:31;;;;;;;43.20;22.25;;;;;;;0.10;78.60;96682.52;1750471;80;28417;-79
2021/12/07 10:11:01;;;;;;;57.65;24.57;;;;;;;0.09;78.56;96684.00;1750285;81;25827;-79
2021/12/07 10:13:30;;;;;;;47.20;24.12;;;;;;;0.08;78.58;96681.01;1750457;80;25702;-79
2021/12/07 10:16:02;;;;;;;45.23;24.65;;;;;;;0.06;78.59;96671.88;1750380;81;26353;-79
2021/12/07 10:18:33;;;;;;;46.25;24.40;;;;;;;0.08;78.62;96668.58;1750574;80;26018;-79
2021/12/07 10:21:10;;;;;;;39.98;21.80;;;;;;;0.10;78.56;96668.41;1750351;80;27380;-79
2021/12/07 10:23:41;;;;;;;44.00;23.67;;;;;;;0.10;78.42;96669.73;1750273;80;25725;-79
2021/12/07 10:26:16;;;;;;;40.92;20.15;;;;;;;0.12;78.52;96671.21;1750514;80;26384;-79
2021/12/07 10:28:50;;;;;;;38.65;21.60;;;;;;;0.13;78.39;96668.06;1749861;80;25765;-79
2021/12/07 10:31:25;;;;;;;39.55;21.20;;;;;;;0.13;78.30;96674.20;1750540;81;25710;-79
2021/12/07 10:34:05;;;;;;;41.23;21.90;;;;;;;0.14;78.30;96665.25;1750391;80;27393;-79
2021/12/07 10:36:36;;;;;;;38.88;21.12;;;;;;;0.14;78.31;96660.44;1750378;80;25741;-79
2021/12/07 10:39:17;;;;;;;42.20;21.30;;;;;;;0.14;78.26;96667.06;1750375;81;25232;-79
2021/12/07 10:41:51;;;;;;;45.08;21.65;;;;;;;0.14;78.25;96663.09;1750321;80;25711;-79
2021/12/07 10:44:23;;;;;;;43.28;23.22;;;;;;;0.17;78.27;96663.59;1750376;81;25772;-80
2021/12/07 10:46:58;;;;;;;46.48;25.92;;;;;;;0.20;78.24;96664.60;1750188;80;27353;-79
2021/12/07 10:49:51;;;;;;;56.00;28.65;;;;;;;0.19;78.16;96665.59;1749973;80;25817;-79
2021/12/07 10:52:27;;;;;;;;;;;;;;;0.15;78.14;96664.25;1753091;80;25762;-79
2021/12/07 10:55:02;;;;;;;51.77;28.00;;;;;;;0.17;78.19;96670.23;1750150;80;25901;-80
2021/12/07 10:57:34;;;;;;;56.55;29.60;;;;;;;0.14;78.19;96671.88;1750364;80;25719;-79
2021/12/07 11:00:26;;;;;;;52.05;29.50;;;;;;;0.15;78.26;96676.20;1749774;80;32222;-79
2021/12/07 11:03:06;;;;;;;52.58;28.60;;;;;;;0.17;78.22;96678.20;1750443;81;25754;-79
2021/12/07 11:05:40;;;;;;;49.67;26.68;;;;;;;0.16;78.18;96676.53;1750402;80;25888;-79
2021/12/07 11:08:09;;;;;;;46.77;25.27;;;;;;;0.17;78.15;96672.89;1750471;81;25670;-79
2021/12/07 11:10:45;;;;;;;49.40;26.00;;;;;;;0.13;78.10;96668.89;1750388;81;25732;-79
2021/12/07 11:13:23;;;;;;;46.80;25.08;;;;;;;0.16;78.08;96674.38;1750319;80;28363;-79
2021/12/07 11:16:01;;;;;;;43.33;24.77;;;;;;;0.15;78.09;96666.91;1750246;79;25733;-79
2021/12/07 11:18:35;;;;;;;47.15;25.80;;;;;;;0.17;78.00;96670.23;1750487;80;25723;-79
2021/12/07 11:21:06;;;;;;;47.27;24.82;;;;;;;0.18;78.00;96674.55;1750340;81;25674;-80
2021/12/07 11:23:38;;;;;;;54.20;30.40;;;;;;;0.22;78.02;96675.06;1750502;79;25735;-79
2021/12/07 11:31:52;;;;;;;47.50;25.40;;;;;;;0.20;77.81;96679.70;1750094;80;25893;-80
2021/12/07 11:34:28;;;;;;;47.17;25.35;;;;;;;0.16;77.75;96675.70;1749901;80;43856;-79
2021/12/07 11:36:59;;;;;;;46.95;25.55;;;;;;;0.17;77.85;96671.56;1746835;80;25737;-80
2021/12/07 11:39:46;;;;;;;47.17;26.93;;;;;;;0.17;77.73;96676.87;1750287;80;28397;-79
2021/12/07 11:42:24;;;;;;;44.60;25.90;;;;;;;0.16;77.73;96673.05;1749830;80;26494;-80
2021/12/07 11:45:02;;;;;;;47.48;26.27;;;;;;;0.14;77.75;96675.86;1750317;80;25691;-80
2021/12/07 11:47:33;;;;;;;50.83;27.37;;;;;;;0.17;77.77;96672.89;1747480;80;25790;-80
2021/12/07 11:50:20;;;;;;;47.30;24.98;;;;;;;0.18;77.75;96674.55;1747179;80;25716;-80
2021/12/07 11:52:51;;;;;;;45.28;24.92;;;;;;;0.19;77.66;96674.88;1747449;80;28262;-80
2021/12/07 11:55:20;;;;;;;47.05;25.10;;;;;;;0.18;77.63;96671.89;1747376;82;26298;-80
2021/12/07 11:57:48;;;;;;;43.23;23.73;;;;;;;0.20;77.63;96672.56;1747196;82;26208;-79
2021/12/07 12:00:26;;;;;;;43.95;23.95;;;;;;;0.22;77.51;96669.75;1747348;80;26306;-80
2021/12/07 12:02:53;;;;;;;45.60;24.57;;;;;;;0.23;77.48;96674.06;1747365;80;25783;-80
2021/12/07 12:05:21;;;;;;;39.40;22.50;;;;;;;0.22;77.37;96677.72;1747329;81;28128;-80
2021/12/07 12:07:50;;;;;;;42.03;23.10;;;;;;;0.22;77.30;96678.55;1747322;80;25683;-79
2021/12/07 12:10:18;;;;;;;36.85;21.30;;;;;;;0.22;77.23;96677.72;1747493;80;26538;-80
2021/12/07 12:13:05;;;;;;;36.38;21.57;;;;;;;0.23;77.18;96676.23;1747309;80;25886;-80
2021/12/07 12:16:10;;;;;;;36.17;20.32;;;;;;;0.23;77.02;96674.90;1747157;81;25245;-80
2021/12/07 12:18:51;;;;;;;36.50;21.50;;;;;;;0.20;76.89;96681.86;1747555;80;27374;-79
2021/12/07 12:21:50;;;;;;;35.08;22.70;;;;;;;0.19;77.01;96680.19;1747360;82;25771;-80
2021/12/07 12:24:32;;;;;;;40.25;23.98;;;;;;;0.22;77.05;96678.55;1692715;83;25832;-80
2021/12/07 12:27:13;;;;;;;40.48;22.35;;;;;;;0.23;77.10;96673.57;1709032;83;25713;-80
2021/12/07 12:29:42;;;;;;;41.02;22.77;;;;;;;0.22;76.91;96669.25;1690563;83;25777;-80
2021/12/07 12:32:09;;;;;;;41.25;22.48;;;;;;;0.24;76.92;96672.55;1721067;81;27512;-80
2021/12/07 12:34:49;;;;;;;38.98;21.17;;;;;;;0.26;76.90;96668.41;1721250;81;25732;-80
2021/12/07 12:37:20;;;;;;;39.50;23.27;;;;;;;0.27;76.87;96669.57;1714132;81;25758;-79
2021/12/07 12:39:58;;;;;;;33.33;20.20;;;;;;;0.30;76.86;96673.73;1721615;82;25708;-81
2021/12/07 12:42:36;;;;;;;35.60;20.48;;;;;;;0.31;76.70;96672.23;1721379;81;26377;-80
2021/12/07 12:45:11;;;;;;;35.35;19.55;;;;;;;0.29;76.62;96672.89;1721259;81;27370;-80
2021/12/07 12:47:39;;;;;;;33.95;17.67;;;;;;;0.31;76.58;96672.23;1726651;81;25680;-80
2021/12/07 12:50:14;;;;;;;32.98;18.98;;;;;;;0.31;76.43;96672.23;1729099;82;25727;-80
2021/12/07 12:52:49;;;;;;;32.93;17.77;;;;;;;0.33;76.40;96677.39;1729229;81;25676;-80
2021/12/07 12:55:41;;;;;;;33.88;19.70;;;;;;;0.33;76.34;96674.23;1729128;82;25762;-80
2021/12/07 12:58:11;;;;;;;;;;;;;;;0.32;76.26;96675.72;1731818;81;27533;-80
2021/12/07 13:01:23;;;;;;;36.53;19.65;;;;;;;0.31;76.21;96674.89;1728736;81;25973;-80
2021/12/07 13:03:55;;;;;;;37.60;20.82;;;;;;;0.30;76.30;96673.23;1729177;81;25743;-80
2021/12/07 13:06:45;;;;;;;35.08;21.30;;;;;;;0.30;76.32;96683.84;1729242;81;25801;-80
2021/12/07 13:09:20;;;;;;;35.55;19.92;;;;;;;0.30;76.38;96686.50;1728973;81;26453;-79
2021/12/07 13:12:13;;;;;;;32.23;20.10;;;;;;;0.32;76.40;96684.52;1729246;81;27371;-80